createdAt,value
2018-05-16T00:01:57.316Z,16.73
2018-05-16T00:04:26.553Z,16.67
2018-05-16T00:06:55.790Z,16.59
2018-05-16T00:09:25.823Z,16.52
2018-05-16T00:11:55.886Z,16.42
2018-05-16T00:14:25.272Z,16.37
2018-05-16T00:16:55.279Z,16.36
2018-05-16T00:19:24.549Z,16.34
2018-05-16T00:21:54.009Z,16.41
2018-05-16T00:24:23.265Z,16.34
2018-05-16T00:26:52.692Z,16.25
2018-05-16T00:29:21.919Z,16.20
2018-05-16T00:31:51.118Z,16.12
2018-05-16T00:34:20.493Z,15.93
2018-05-16T00:36:49.673Z,15.75
2018-05-16T00:39:18.961Z,15.60
2018-05-16T00:41:48.162Z,15.49
2018-05-16T00:44:18.165Z,15.42
2018-05-16T00:46:47.342Z,15.40
2018-05-16T00:49:17.338Z,15.43
2018-05-16T00:51:46.560Z,15.40
2018-05-16T00:54:16.545Z,15.39
2018-05-16T00:56:45.801Z,15.37
2018-05-16T00:59:15.142Z,15.34
2018-05-16T01:01:44.357Z,15.33
2018-05-16T01:04:13.652Z,15.34
2018-05-16T01:06:42.937Z,15.32
2018-05-16T01:09:12.195Z,15.27
2018-05-16T01:11:41.407Z,15.25
2018-05-16T01:14:10.658Z,15.21
2018-05-16T01:16:40.689Z,15.19
2018-05-16T01:19:10.712Z,15.18
2018-05-16T01:21:40.698Z,15.16
2018-05-16T01:24:09.977Z,15.12
2018-05-16T01:26:39.352Z,15.12
2018-05-16T01:29:08.604Z,15.13
2018-05-16T01:31:37.859Z,15.06
2018-05-16T01:34:07.219Z,15.02
2018-05-16T01:36:37.410Z,15.00
2018-05-16T01:39:06.675Z,14.99
2018-05-16T01:41:35.884Z,14.92
2018-05-16T01:44:06.034Z,14.92
2018-05-16T01:46:35.354Z,14.89
2018-05-16T01:49:20.173Z,14.86
2018-05-16T01:51:49.359Z,14.84
2018-05-16T01:54:18.609Z,14.81
2018-05-16T01:56:48.015Z,14.83
2018-05-16T01:59:17.227Z,14.82
2018-05-16T02:01:46.424Z,14.84
2018-05-16T02:04:15.646Z,14.84
2018-05-16T02:06:44.863Z,14.88
2018-05-16T02:09:14.078Z,14.87
2018-05-16T02:11:44.767Z,14.93
2018-05-16T02:14:14.892Z,14.92
2018-05-16T02:16:44.102Z,14.86
2018-05-16T02:19:13.634Z,14.90
2018-05-16T02:21:42.837Z,14.91
2018-05-16T02:24:12.060Z,14.94
2018-05-16T02:26:42.121Z,14.94
2018-05-16T02:29:11.361Z,14.94
2018-05-16T02:31:40.557Z,14.95
2018-05-16T02:34:10.560Z,14.97
2018-05-16T02:36:39.801Z,14.97
2018-05-16T02:39:09.021Z,14.88
2018-05-16T02:41:38.264Z,14.82
2018-05-16T02:44:07.706Z,14.67
2018-05-16T02:46:36.985Z,14.57
2018-05-16T02:49:07.169Z,14.42
2018-05-16T02:51:36.386Z,14.38
2018-05-16T02:54:06.468Z,14.35
2018-05-16T02:56:35.738Z,14.26
2018-05-16T02:59:04.946Z,14.23
2018-05-16T03:01:34.150Z,14.22
2018-05-16T03:04:03.448Z,14.24
2018-05-16T03:06:32.716Z,14.24
2018-05-16T03:09:01.933Z,14.22
2018-05-16T03:11:31.137Z,14.26
2018-05-16T03:14:00.464Z,14.31
2018-05-16T03:16:29.673Z,14.32
2018-05-16T03:18:59.822Z,14.31
2018-05-16T03:21:29.231Z,14.32
2018-05-16T03:23:59.196Z,14.28
2018-05-16T03:26:28.461Z,14.27
2018-05-16T03:28:57.673Z,14.25
2018-05-16T03:31:26.977Z,14.26
2018-05-16T03:33:57.127Z,14.26
2018-05-16T03:36:27.862Z,14.25
2018-05-16T03:38:57.313Z,14.23
2018-05-16T03:41:26.543Z,14.20
2018-05-16T03:43:55.746Z,14.20
2018-05-16T03:46:24.972Z,14.23
2018-05-16T04:02:17.584Z,13.66
2018-05-16T04:04:47.655Z,13.66
2018-05-16T04:07:16.958Z,13.70
2018-05-16T04:09:46.271Z,13.78
2018-05-16T04:12:15.737Z,13.79
2018-05-16T04:14:44.979Z,13.82
2018-05-16T04:17:14.252Z,13.87
2018-05-16T04:19:43.469Z,13.85
2018-05-16T04:22:12.781Z,13.87
2018-05-16T04:24:42.030Z,13.91
2018-05-16T04:27:13.344Z,13.95
2018-05-16T04:29:43.997Z,13.94
2018-05-16T04:32:14.114Z,13.89
2018-05-16T04:34:43.640Z,13.90
2018-05-16T04:37:12.922Z,13.91
2018-05-16T04:39:42.185Z,13.93
2018-05-16T04:42:11.433Z,13.96
2018-05-16T04:44:40.715Z,14.03
2018-05-16T04:47:10.821Z,14.11
2018-05-16T04:49:40.253Z,14.20
2018-05-16T04:52:09.467Z,14.36
2018-05-16T04:54:38.888Z,14.46
2018-05-16T04:57:08.771Z,14.45
2018-05-16T04:59:38.003Z,14.42
2018-05-16T05:02:07.288Z,14.46
2018-05-16T05:04:36.476Z,14.48
2018-05-16T05:07:06.463Z,14.42
2018-05-16T05:09:36.469Z,14.44
2018-05-16T05:12:06.454Z,14.46
2018-05-16T05:14:35.938Z,14.49
2018-05-16T05:17:05.147Z,14.47
2018-05-16T05:19:34.385Z,14.46
2018-05-16T05:22:04.352Z,14.48
2018-05-16T05:24:33.705Z,14.46
2018-05-16T05:27:03.683Z,14.50
2018-05-16T05:29:32.947Z,14.52
2018-05-16T05:32:02.932Z,14.49
2018-05-16T05:34:32.928Z,14.55
2018-05-16T05:37:03.845Z,14.60
2018-05-16T05:39:33.100Z,14.61
2018-05-16T05:42:03.189Z,14.65
2018-05-16T05:44:32.425Z,14.66
2018-05-16T05:47:01.659Z,14.66
2018-05-16T05:49:30.904Z,14.64
2018-05-16T05:52:00.922Z,14.68
2018-05-16T05:54:31.191Z,14.74
2018-05-16T05:57:00.421Z,14.82
2018-05-16T05:59:29.657Z,14.93
2018-05-16T06:01:58.874Z,15.05
2018-05-16T06:04:28.145Z,15.19
2018-05-16T06:06:57.601Z,15.33
2018-05-16T06:09:26.884Z,15.50
2018-05-16T06:11:56.138Z,15.63
2018-05-16T06:14:26.133Z,15.78
2018-05-16T06:16:55.351Z,15.77
2018-05-16T06:19:24.743Z,15.76
2018-05-16T06:21:53.934Z,15.85
2018-05-16T06:24:23.934Z,15.82
2018-05-16T06:26:53.150Z,15.82
2018-05-16T06:29:22.364Z,15.96
2018-05-16T06:31:52.407Z,16.01
2018-05-16T06:34:21.753Z,16.15
2018-05-16T06:36:51.097Z,16.15
2018-05-16T06:39:20.397Z,16.21
2018-05-16T06:41:49.514Z,16.18
2018-05-16T06:44:18.752Z,16.24
2018-05-16T06:46:47.941Z,16.34
2018-05-16T06:49:17.995Z,16.52
2018-05-16T06:51:47.318Z,16.67
2018-05-16T06:54:16.578Z,16.74
2018-05-16T06:56:45.750Z,16.74
2018-05-16T06:59:14.982Z,16.71
2018-05-16T07:01:44.296Z,16.68
2018-05-16T07:04:13.537Z,16.72
2018-05-16T07:06:42.816Z,16.79
2018-05-16T07:09:12.030Z,16.82
2018-05-16T07:11:41.333Z,16.93
2018-05-16T07:14:10.588Z,16.93
2018-05-16T07:16:39.797Z,17.05
2018-05-16T07:19:09.014Z,17.10
2018-05-16T07:21:38.257Z,17.15
2018-05-16T07:24:08.246Z,17.14
2018-05-16T07:26:38.969Z,17.20
2018-05-16T07:29:08.249Z,17.31
2018-05-16T07:31:37.461Z,17.47
2018-05-16T07:34:06.761Z,17.50
2018-05-16T07:36:36.013Z,17.65
2018-05-16T07:39:06.306Z,17.77
2018-05-16T07:41:35.576Z,17.92
2018-05-16T07:44:04.877Z,18.04
2018-05-16T07:46:34.110Z,18.03
2018-05-16T07:49:03.338Z,18.03
2018-05-16T07:51:32.568Z,17.87
2018-05-16T07:54:01.800Z,17.65
2018-05-16T07:56:31.096Z,17.46
2018-05-16T07:59:00.298Z,17.39
2018-05-16T08:01:29.490Z,17.38
2018-05-16T08:03:58.742Z,17.39
2018-05-16T08:06:27.961Z,17.57
2018-05-16T08:08:57.242Z,17.76
2018-05-16T08:11:26.405Z,17.89
2018-05-16T08:13:56.416Z,18.02
2018-05-16T08:16:26.456Z,18.17
2018-05-16T08:18:56.423Z,18.30
2018-05-16T08:21:25.930Z,18.32
2018-05-16T08:23:55.178Z,18.32
2018-05-16T08:26:24.370Z,18.18
2018-05-16T08:28:53.598Z,18.05
2018-05-16T08:31:22.879Z,17.94
2018-05-16T08:33:52.130Z,17.92
2018-05-16T08:36:21.364Z,18.02
2018-05-16T08:38:50.574Z,18.03
2018-05-16T08:41:19.777Z,17.93
2018-05-16T08:43:49.080Z,17.98
2018-05-16T08:46:18.294Z,18.07
2018-05-16T08:48:48.407Z,18.18
2018-05-16T08:51:17.625Z,18.36
2018-05-16T08:53:46.881Z,18.42
2018-05-16T08:56:16.130Z,18.43
2018-05-16T08:58:45.516Z,18.45
2018-05-16T09:01:14.756Z,18.51
2018-05-16T09:03:44.450Z,18.60
2018-05-16T09:06:14.450Z,18.67
2018-05-16T09:08:44.059Z,18.58
2018-05-16T09:11:13.269Z,18.47
2018-05-16T09:13:42.486Z,18.41
2018-05-16T09:16:11.761Z,18.23
2018-05-16T09:18:41.177Z,18.21
2018-05-16T09:21:10.432Z,18.19
2018-05-16T09:23:39.595Z,18.06
2018-05-16T09:26:08.818Z,17.97
2018-05-16T09:28:38.053Z,17.94
2018-05-16T09:31:08.037Z,18.04
2018-05-16T09:33:37.380Z,18.09
2018-05-16T09:36:07.434Z,18.03
2018-05-16T09:38:36.717Z,17.99
2018-05-16T09:41:05.957Z,17.96
2018-05-16T09:43:35.194Z,17.85
2018-05-16T09:46:04.458Z,17.72
2018-05-16T09:48:33.711Z,17.68
2018-05-16T09:51:03.821Z,17.64
2018-05-16T09:53:33.822Z,17.55
2018-05-16T09:56:03.051Z,17.52
2018-05-16T09:58:33.100Z,17.50
2018-05-16T10:01:02.331Z,17.47
2018-05-16T10:03:31.703Z,17.39
2018-05-16T10:06:00.958Z,17.40
2018-05-16T10:08:30.983Z,17.44
2018-05-16T10:11:00.238Z,17.44
2018-05-16T10:13:29.465Z,17.54
2018-05-16T10:15:58.699Z,17.60
2018-05-16T10:18:28.066Z,17.59
2018-05-16T10:20:57.437Z,17.65
2018-05-16T10:23:27.452Z,17.69
2018-05-16T10:25:56.934Z,17.70
2018-05-16T10:28:26.149Z,17.77
2018-05-16T10:30:55.360Z,17.89
2018-05-16T10:33:25.412Z,17.87
2018-05-16T10:35:54.613Z,17.88
2018-05-16T10:38:23.834Z,17.90
2018-05-16T10:40:53.221Z,17.86
2018-05-16T10:43:22.450Z,17.90
2018-05-16T10:45:51.638Z,18.08
2018-05-16T10:48:20.853Z,18.22
2018-05-16T10:50:50.078Z,18.34
2018-05-16T10:53:20.088Z,18.35
2018-05-16T10:55:50.887Z,18.48
2018-05-16T10:58:20.295Z,18.66
2018-05-16T11:00:49.489Z,18.80
2018-05-16T11:03:18.780Z,18.74
2018-05-16T11:05:47.965Z,18.78
2018-05-16T11:08:17.243Z,18.82
2018-05-16T11:10:46.503Z,18.90
2018-05-16T11:13:15.780Z,18.85
2018-05-16T11:15:45.008Z,18.73
2018-05-16T11:18:14.216Z,18.58
2018-05-16T11:20:44.246Z,18.39
2018-05-16T11:23:13.479Z,18.19
2018-05-16T11:25:42.832Z,18.12
2018-05-16T11:28:12.865Z,18.05
2018-05-16T11:30:42.997Z,17.99
2018-05-16T11:33:12.270Z,17.92
2018-05-16T11:35:41.500Z,17.86
2018-05-16T11:38:10.910Z,17.76
2018-05-16T11:40:40.164Z,17.69
2018-05-16T11:43:09.621Z,17.65
2018-05-16T11:45:38.849Z,17.63
2018-05-16T11:48:08.083Z,17.59
2018-05-16T11:50:37.340Z,17.56
2018-05-16T11:53:06.553Z,17.48
2018-05-16T11:55:35.803Z,17.31
2018-05-16T11:58:05.001Z,17.21
2018-05-16T12:00:34.239Z,17.16
2018-05-16T12:03:04.226Z,17.03
2018-05-16T12:05:33.497Z,16.98
2018-05-16T12:08:02.738Z,17.08
2018-05-16T12:10:31.969Z,17.13
2018-05-16T12:13:01.219Z,17.25
2018-05-16T12:15:30.682Z,17.39
2018-05-16T12:18:00.297Z,17.51
2018-05-16T12:20:29.659Z,17.57
2018-05-16T12:22:58.844Z,17.59
2018-05-16T12:25:28.129Z,17.56
2018-05-16T12:27:57.357Z,17.50
2018-05-16T12:30:26.840Z,17.40
2018-05-16T12:32:56.052Z,17.34
2018-05-16T12:35:26.029Z,17.29
2018-05-16T12:37:55.341Z,17.27
2018-05-16T12:40:24.540Z,17.28
2018-05-16T12:43:11.416Z,17.25
2018-05-16T12:45:40.634Z,17.21
2018-05-16T12:48:09.853Z,17.22
2018-05-16T12:50:39.014Z,17.25
2018-05-16T12:53:08.282Z,17.29
2018-05-16T12:55:37.604Z,17.31
2018-05-16T12:58:06.768Z,17.43
2018-05-16T13:00:36.743Z,17.54
2018-05-16T13:03:05.995Z,17.70
2018-05-16T13:05:36.031Z,17.86
2018-05-16T13:08:05.309Z,17.97
2018-05-16T13:10:35.284Z,17.92
2018-05-16T13:13:04.587Z,17.89
2018-05-16T13:15:34.845Z,17.91
2018-05-16T13:18:04.083Z,17.98
2018-05-16T13:20:33.474Z,18.05
2018-05-16T13:23:02.681Z,18.15
2018-05-16T13:25:31.961Z,18.26
2018-05-16T13:28:01.166Z,18.37
2018-05-16T13:30:30.672Z,18.48
2018-05-16T13:33:00.600Z,18.59
2018-05-16T13:35:29.984Z,18.54
2018-05-16T13:37:59.193Z,18.47
2018-05-16T13:40:28.529Z,18.50
2018-05-16T13:42:58.061Z,18.50
2018-05-16T13:45:27.312Z,18.50
2018-05-16T13:47:56.692Z,18.49
2018-05-16T13:50:26.794Z,18.52
2018-05-16T13:52:56.068Z,18.68
2018-05-16T13:55:25.813Z,18.85
2018-05-16T13:57:55.933Z,18.89
2018-05-16T14:00:25.160Z,18.99
2018-05-16T14:02:54.419Z,19.10
2018-05-16T14:05:23.668Z,19.21
2018-05-16T14:07:52.896Z,19.21
2018-05-16T14:10:22.451Z,19.30
2018-05-16T14:12:51.597Z,19.42
2018-05-16T14:15:22.026Z,19.49
2018-05-16T14:17:52.083Z,19.51
2018-05-16T14:20:21.645Z,19.54
2018-05-16T14:22:51.651Z,19.51
2018-05-16T14:25:20.854Z,19.57
2018-05-16T14:27:50.127Z,19.73
2018-05-16T14:30:19.388Z,19.84
2018-05-16T14:32:48.602Z,19.87
2018-05-16T14:35:17.955Z,19.96
2018-05-16T14:37:47.926Z,19.96
2018-05-16T14:40:17.196Z,19.99
2018-05-16T14:42:46.448Z,20.04
2018-05-16T14:45:15.665Z,20.09
2018-05-16T14:47:45.656Z,20.13
2018-05-16T14:50:14.882Z,20.13
2018-05-16T14:52:44.166Z,20.14
2018-05-16T14:55:14.959Z,20.21
2018-05-16T14:57:44.531Z,20.34
2018-05-16T15:00:13.774Z,20.50
2018-05-16T15:02:44.085Z,20.51
2018-05-16T15:05:13.599Z,20.50
2018-05-16T15:07:42.798Z,20.50
2018-05-16T15:10:12.041Z,20.49
2018-05-16T15:12:41.303Z,20.43
2018-05-16T15:15:11.328Z,20.50
2018-05-16T15:17:40.577Z,20.46
2018-05-16T15:20:09.869Z,20.39
2018-05-16T15:22:39.787Z,20.12
2018-05-16T15:25:09.247Z,19.81
2018-05-16T15:27:39.266Z,19.51
2018-05-16T15:30:10.402Z,19.28
2018-05-16T15:32:40.007Z,19.14
2018-05-16T15:35:09.242Z,19.03
2018-05-16T15:37:38.769Z,18.93
2018-05-16T15:40:07.969Z,18.94
2018-05-16T15:42:37.316Z,18.95
2018-05-16T15:45:06.670Z,18.86
2018-05-16T15:47:35.961Z,18.80
2018-05-16T15:50:05.192Z,18.81
2018-05-16T15:52:34.395Z,18.74
2018-05-16T15:55:03.878Z,18.70
2018-05-16T15:57:33.174Z,18.56
2018-05-16T16:00:02.599Z,18.44
2018-05-16T16:02:31.860Z,18.31
2018-05-16T16:05:01.318Z,18.14
2018-05-16T16:07:31.298Z,18.03
2018-05-16T16:10:00.541Z,17.93
2018-05-16T16:12:29.799Z,17.74
2018-05-16T16:14:59.137Z,17.54
2018-05-16T16:17:29.161Z,17.52
2018-05-16T16:19:59.268Z,17.28
2018-05-16T16:22:28.632Z,17.05
2018-05-16T16:24:57.922Z,17.03
2018-05-16T16:27:27.132Z,16.99
2018-05-16T16:29:56.578Z,17.05
2018-05-16T16:32:26.578Z,17.03
2018-05-16T16:34:55.898Z,17.00
2018-05-16T16:37:26.021Z,16.93
2018-05-16T16:39:56.264Z,16.85
2018-05-16T16:42:25.593Z,16.76
2018-05-16T16:44:54.863Z,16.71
2018-05-16T16:47:24.929Z,16.74
2018-05-16T16:49:54.187Z,16.74
2018-05-16T16:52:23.487Z,16.66
2018-05-16T16:54:52.690Z,16.63
2018-05-16T16:57:22.009Z,16.69
2018-05-16T16:59:51.219Z,16.79
2018-05-16T17:02:20.453Z,16.79
2018-05-16T17:04:50.475Z,16.85
2018-05-16T17:07:19.711Z,16.83
2018-05-16T17:09:48.931Z,16.85
2018-05-16T17:12:18.179Z,16.85
2018-05-16T17:14:47.534Z,16.79
2018-05-16T17:17:16.935Z,16.54
2018-05-16T17:19:46.148Z,16.25
2018-05-16T17:22:16.448Z,16.14
2018-05-16T17:24:45.662Z,15.95
2018-05-16T17:27:14.994Z,15.73
2018-05-16T17:29:45.085Z,15.52
2018-05-16T17:32:15.204Z,15.38
2018-05-16T17:34:44.726Z,15.31
2018-05-16T17:37:14.087Z,15.21
2018-05-16T17:39:43.943Z,15.00
2018-05-16T17:42:14.351Z,14.83
2018-05-16T17:44:44.155Z,14.67
2018-05-16T17:47:13.432Z,14.54
2018-05-16T17:49:42.730Z,14.58
2018-05-16T17:52:12.021Z,14.50
2018-05-16T17:54:41.274Z,14.51
2018-05-16T17:57:10.695Z,14.56
2018-05-16T17:59:40.024Z,14.66
2018-05-16T18:02:09.518Z,14.70
2018-05-16T18:04:38.724Z,14.68
2018-05-16T18:07:08.114Z,14.60
2018-05-16T18:09:37.596Z,14.50
2018-05-16T18:12:08.188Z,14.51
2018-05-16T18:15:15.793Z,14.47
2018-05-16T18:17:45.149Z,14.50
2018-05-16T18:20:14.550Z,14.62
2018-05-16T18:22:43.849Z,14.65
2018-05-16T18:25:13.768Z,14.51
2018-05-16T18:27:43.050Z,14.33
2018-05-16T18:30:12.605Z,14.40
2018-05-16T18:32:41.906Z,14.39
2018-05-16T18:35:11.194Z,14.48
2018-05-16T18:37:40.419Z,14.53
2018-05-16T18:40:10.410Z,14.57
2018-05-16T18:42:40.242Z,14.59
2018-05-16T18:45:09.383Z,14.56
2018-05-16T18:47:38.701Z,14.61
2018-05-16T18:50:07.961Z,14.67
2018-05-16T18:52:37.977Z,14.70
2018-05-16T18:55:07.241Z,14.77
2018-05-16T18:57:36.758Z,14.83
2018-05-16T19:00:06.182Z,14.85
2018-05-16T19:02:35.437Z,14.86
2018-05-16T19:05:04.662Z,14.91
2018-05-16T19:07:34.618Z,14.96
2018-05-16T19:10:03.850Z,14.99
2018-05-16T19:12:33.086Z,15.00
2018-05-16T19:15:02.512Z,15.02
2018-05-16T19:17:31.828Z,15.05
2018-05-16T19:20:01.059Z,15.07
2018-05-16T19:22:30.296Z,15.03
2018-05-16T19:24:59.736Z,14.98
2018-05-16T19:27:28.978Z,14.90
2018-05-16T19:29:59.729Z,14.76
2018-05-16T19:32:28.972Z,14.79
2018-05-16T19:34:58.822Z,14.78
2018-05-16T19:37:28.107Z,14.72
2018-05-16T19:39:59.277Z,14.63
2018-05-16T19:42:28.565Z,14.48
2018-05-16T19:44:58.945Z,14.36
2018-05-16T19:47:28.232Z,14.38
2018-05-16T19:49:57.497Z,14.30
2018-05-16T19:52:26.717Z,14.24
2018-05-16T19:54:56.215Z,14.22
2018-05-16T19:57:25.484Z,14.18
2018-05-16T19:59:55.766Z,14.11
2018-05-16T20:02:25.000Z,14.07
2018-05-16T20:04:55.047Z,14.08
2018-05-16T20:07:25.058Z,14.09
2018-05-16T20:09:54.387Z,14.04
2018-05-16T20:12:24.474Z,13.98
2018-05-16T20:14:53.780Z,14.02
2018-05-16T20:17:22.972Z,14.02
2018-05-16T20:19:53.152Z,13.87
2018-05-16T20:22:22.514Z,13.82
2018-05-16T20:24:51.960Z,13.68
2018-05-16T20:27:21.210Z,13.62
2018-05-16T20:29:50.662Z,13.55
2018-05-16T20:32:19.958Z,13.50
2018-05-16T20:34:50.294Z,13.42
2018-05-16T20:37:20.248Z,13.37
2018-05-16T20:39:49.530Z,13.32
2018-05-16T20:42:21.065Z,13.27
2018-05-16T20:44:50.263Z,13.27
2018-05-16T20:47:19.636Z,13.22
2018-05-16T20:49:50.058Z,13.26
2018-05-16T20:52:19.441Z,13.25
2018-05-16T20:54:48.700Z,13.23
2018-05-16T20:57:18.685Z,13.19
2018-05-16T20:59:49.124Z,13.18
2018-05-16T21:02:18.434Z,13.23
2018-05-16T21:04:48.423Z,13.27
2018-05-16T21:07:17.930Z,13.31
2018-05-16T21:09:47.166Z,13.28
2018-05-16T21:12:16.778Z,13.16
2018-05-16T21:14:46.139Z,13.10
2018-05-16T21:17:15.404Z,13.04
2018-05-16T21:19:44.671Z,13.05
2018-05-16T21:22:14.249Z,13.04
2018-05-16T21:24:44.264Z,13.02
2018-05-16T21:27:13.494Z,12.90
2018-05-16T21:29:42.732Z,12.85
2018-05-16T21:32:11.965Z,12.79
2018-05-16T21:34:42.102Z,12.81
2018-05-16T21:37:11.359Z,12.84
2018-05-16T21:39:40.958Z,12.86
2018-05-16T21:42:10.219Z,12.82
2018-05-16T21:44:39.476Z,12.70
2018-05-16T21:47:09.062Z,12.67
2018-05-16T21:49:38.304Z,12.55
2018-05-16T21:52:08.418Z,12.44
2018-05-16T21:54:38.554Z,12.33
2018-05-16T21:57:07.783Z,12.26
2018-05-16T21:59:37.141Z,12.29
2018-05-16T22:02:06.419Z,12.30
2018-05-16T22:04:35.661Z,12.18
2018-05-16T22:07:05.329Z,12.23
2018-05-16T22:09:35.673Z,12.27
2018-05-16T22:12:05.018Z,12.27
2018-05-16T22:14:34.257Z,12.20
2018-05-16T22:17:04.299Z,12.13
2018-05-16T22:19:33.597Z,12.09
2018-05-16T22:22:03.569Z,12.01
2018-05-16T22:24:33.017Z,12.06
2018-05-16T22:27:02.274Z,12.00
2018-05-16T22:29:32.241Z,11.99
2018-05-16T22:32:06.955Z,11.99
2018-05-16T22:34:41.700Z,11.99
2018-05-16T22:37:16.807Z,12.07
2018-05-16T22:39:51.670Z,12.06
2018-05-16T22:42:26.358Z,12.08
2018-05-16T22:44:57.398Z,12.04
2018-05-16T22:47:26.689Z,11.98
2018-05-16T22:49:56.680Z,11.87
2018-05-16T22:52:26.093Z,11.81
2018-05-16T22:54:55.308Z,11.80
2018-05-16T22:57:25.342Z,11.74
2018-05-16T22:59:54.556Z,11.73
2018-05-16T23:02:23.910Z,11.78
2018-05-16T23:04:53.908Z,11.78
2018-05-16T23:07:23.832Z,11.74
2018-05-16T23:09:53.165Z,11.71
2018-05-16T23:12:22.373Z,11.61
2018-05-16T23:14:51.608Z,11.47
2018-05-16T23:17:20.829Z,11.43
2018-05-16T23:19:50.038Z,11.27
2018-05-16T23:22:19.267Z,11.19
2018-05-16T23:24:49.504Z,11.13
2018-05-16T23:27:18.896Z,11.15
2018-05-16T23:29:48.180Z,11.09
2018-05-16T23:32:17.378Z,11.08
2018-05-16T23:34:46.578Z,11.06
2018-05-16T23:37:15.799Z,10.95
2018-05-16T23:39:45.013Z,10.87
2018-05-16T23:42:14.217Z,10.84
2018-05-16T23:44:43.462Z,10.73
2018-05-16T23:47:12.682Z,10.66
2018-05-16T23:49:41.905Z,10.50
2018-05-16T23:52:11.163Z,10.44
2018-05-16T23:54:40.427Z,10.36
2018-05-16T23:57:10.436Z,10.29
2018-05-16T23:59:40.442Z,10.26
